sensor_id;sensor_type;location;lat;lon;timestamp;P1;durP1;ratioP1;P2;durP2;ratioP2
41709;SDS011;59402;48.396;-4.472;2022-12-18T00:00:40;30.40;;;18.20;;
41709;SDS011;59402;48.396;-4.472;2022-12-18T00:03:06;30.23;;;17.42;;
41709;SDS011;59402;48.396;-4.472;2022-12-18T00:05:32;31.55;;;18.35;;
41709;SDS011;59402;48.396;-4.472;2022-12-18T00:07:57;31.63;;;17.33;;
41709;SDS011;59402;48.396;-4.472;2022-12-18T00:10:22;29.58;;;17.35;;
41709;SDS011;59402;48.396;-4.472;2022-12-18T00:12:48;28.90;;;17.05;;
41709;SDS011;59402;48.396;-4.472;2022-12-18T00:15:13;29.95;;;17.75;;
41709;SDS011;59402;48.396;-4.472;2022-12-18T00:17:38;31.73;;;18.80;;
41709;SDS011;59402;48.396;-4.472;2022-12-18T00:20:04;30.95;;;19.02;;
41709;SDS011;59402;48.396;-4.472;2022-12-18T00:22:29;31.45;;;18.63;;
41709;SDS011;59402;48.396;-4.472;2022-12-18T00:24:54;36.95;;;18.90;;
41709;SDS011;59402;48.396;-4.472;2022-12-18T00:27:20;32.03;;;18.83;;
41709;SDS011;59402;48.396;-4.472;2022-12-18T00:29:45;31.83;;;18.23;;
41709;SDS011;59402;48.396;-4.472;2022-12-18T00:32:10;33.35;;;19.30;;
41709;SDS011;59402;48.396;-4.472;2022-12-18T00:34:36;31.27;;;18.00;;
41709;SDS011;59402;48.396;-4.472;2022-12-18T00:37:01;28.50;;;18.10;;
41709;SDS011;59402;48.396;-4.472;2022-12-18T00:39:27;33.72;;;19.38;;
41709;SDS011;59402;48.396;-4.472;2022-12-18T00:41:52;32.38;;;18.48;;
41709;SDS011;59402;48.396;-4.472;2022-12-18T00:44:36;30.20;;;18.13;;
41709;SDS011;59402;48.396;-4.472;2022-12-18T00:47:02;31.80;;;18.55;;
41709;SDS011;59402;48.396;-4.472;2022-12-18T00:49:27;31.65;;;18.70;;
41709;SDS011;59402;48.396;-4.472;2022-12-18T00:51:53;35.13;;;19.13;;
41709;SDS011;59402;48.396;-4.472;2022-12-18T00:54:19;32.67;;;18.45;;
41709;SDS011;59402;48.396;-4.472;2022-12-18T00:56:44;31.55;;;18.88;;
41709;SDS011;59402;48.396;-4.472;2022-12-18T00:59:09;32.60;;;19.17;;
41709;SDS011;59402;48.396;-4.472;2022-12-18T01:01:37;34.58;;;18.73;;
41709;SDS011;59402;48.396;-4.472;2022-12-18T01:04:03;35.67;;;19.20;;
41709;SDS011;59402;48.396;-4.472;2022-12-18T01:06:29;29.58;;;18.73;;
41709;SDS011;59402;48.396;-4.472;2022-12-18T01:08:54;30.63;;;18.60;;
41709;SDS011;59402;48.396;-4.472;2022-12-18T01:11:20;29.80;;;18.63;;
41709;SDS011;59402;48.396;-4.472;2022-12-18T01:13:47;31.42;;;18.63;;
41709;SDS011;59402;48.396;-4.472;2022-12-18T01:16:13;32.85;;;18.98;;
41709;SDS011;59402;48.396;-4.472;2022-12-18T01:18:39;32.22;;;19.52;;
41709;SDS011;59402;48.396;-4.472;2022-12-18T01:21:05;32.75;;;19.05;;
41709;SDS011;59402;48.396;-4.472;2022-12-18T01:23:31;30.88;;;19.10;;
41709;SDS011;59402;48.396;-4.472;2022-12-18T01:26:03;30.95;;;19.40;;
41709;SDS011;59402;48.396;-4.472;2022-12-18T01:28:29;34.92;;;19.40;;
41709;SDS011;59402;48.396;-4.472;2022-12-18T01:30:54;34.10;;;20.15;;
41709;SDS011;59402;48.396;-4.472;2022-12-18T01:33:19;33.60;;;19.40;;
41709;SDS011;59402;48.396;-4.472;2022-12-18T01:35:45;33.90;;;19.88;;
41709;SDS011;59402;48.396;-4.472;2022-12-18T01:38:10;33.30;;;20.33;;
41709;SDS011;59402;48.396;-4.472;2022-12-18T01:40:36;30.02;;;19.08;;
41709;SDS011;59402;48.396;-4.472;2022-12-18T01:43:01;33.60;;;20.50;;
41709;SDS011;59402;48.396;-4.472;2022-12-18T01:45:28;35.53;;;19.08;;
41709;SDS011;59402;48.396;-4.472;2022-12-18T01:48:04;33.03;;;19.38;;
41709;SDS011;59402;48.396;-4.472;2022-12-18T01:50:32;32.75;;;20.42;;
41709;SDS011;59402;48.396;-4.472;2022-12-18T01:53:03;27.17;;;18.45;;
41709;SDS011;59402;48.396;-4.472;2022-12-18T01:55:31;31.88;;;19.73;;
41709;SDS011;59402;48.396;-4.472;2022-12-18T01:57:58;38.38;;;20.58;;
41709;SDS011;59402;48.396;-4.472;2022-12-18T02:00:24;34.60;;;20.43;;
41709;SDS011;59402;48.396;-4.472;2022-12-18T02:02:50;33.08;;;20.90;;
41709;SDS011;59402;48.396;-4.472;2022-12-18T02:05:18;33.88;;;20.70;;
41709;SDS011;59402;48.396;-4.472;2022-12-18T02:10:36;38.92;;;20.85;;
41709;SDS011;59402;48.396;-4.472;2022-12-18T02:13:19;35.65;;;20.02;;
41709;SDS011;59402;48.396;-4.472;2022-12-18T02:15:51;29.92;;;20.55;;
41709;SDS011;59402;48.396;-4.472;2022-12-18T02:18:23;41.65;;;21.25;;
41709;SDS011;59402;48.396;-4.472;2022-12-18T02:28:25;33.30;;;19.65;;
41709;SDS011;59402;48.396;-4.472;2022-12-18T02:33:18;32.88;;;18.88;;
41709;SDS011;59402;48.396;-4.472;2022-12-18T02:35:44;35.25;;;19.95;;
41709;SDS011;59402;48.396;-4.472;2022-12-18T02:38:10;36.08;;;21.45;;
41709;SDS011;59402;48.396;-4.472;2022-12-18T02:40:38;32.38;;;20.42;;
41709;SDS011;59402;48.396;-4.472;2022-12-18T02:43:08;34.05;;;20.27;;
41709;SDS011;59402;48.396;-4.472;2022-12-18T02:45:34;38.50;;;20.33;;
41709;SDS011;59402;48.396;-4.472;2022-12-18T02:47:59;33.90;;;20.52;;
41709;SDS011;59402;48.396;-4.472;2022-12-18T02:50:34;35.03;;;20.92;;
41709;SDS011;59402;48.396;-4.472;2022-12-18T02:58:30;35.60;;;20.33;;
41709;SDS011;59402;48.396;-4.472;2022-12-18T03:03:38;33.58;;;20.20;;
41709;SDS011;59402;48.396;-4.472;2022-12-18T03:06:48;35.13;;;20.23;;
41709;SDS011;59402;48.396;-4.472;2022-12-18T03:08:56;34.42;;;19.42;;
41709;SDS011;59402;48.396;-4.472;2022-12-18T03:11:24;36.63;;;20.23;;
41709;SDS011;59402;48.396;-4.472;2022-12-18T03:14:11;40.80;;;21.85;;
41709;SDS011;59402;48.396;-4.472;2022-12-18T03:16:38;33.15;;;20.75;;
41709;SDS011;59402;48.396;-4.472;2022-12-18T03:19:08;33.05;;;21.35;;
41709;SDS011;59402;48.396;-4.472;2022-12-18T03:21:40;38.10;;;20.42;;
41709;SDS011;59402;48.396;-4.472;2022-12-18T03:24:06;36.20;;;20.27;;
41709;SDS011;59402;48.396;-4.472;2022-12-18T03:26:33;34.97;;;20.92;;
41709;SDS011;59402;48.396;-4.472;2022-12-18T03:29:06;34.35;;;19.75;;
41709;SDS011;59402;48.396;-4.472;2022-12-18T03:31:34;38.90;;;20.20;;
41709;SDS011;59402;48.396;-4.472;2022-12-18T03:34:03;36.63;;;21.75;;
41709;SDS011;59402;48.396;-4.472;2022-12-18T03:36:38;37.85;;;20.20;;
41709;SDS011;59402;48.396;-4.472;2022-12-18T03:39:03;34.00;;;21.27;;
41709;SDS011;59402;48.396;-4.472;2022-12-18T03:44:30;35.17;;;21.02;;
41709;SDS011;59402;48.396;-4.472;2022-12-18T03:52:03;36.97;;;22.35;;
41709;SDS011;59402;48.396;-4.472;2022-12-18T03:54:29;36.45;;;21.10;;
41709;SDS011;59402;48.396;-4.472;2022-12-18T03:57:11;35.45;;;21.95;;
41709;SDS011;59402;48.396;-4.472;2022-12-18T03:59:38;36.85;;;20.90;;
41709;SDS011;59402;48.396;-4.472;2022-12-18T04:02:06;39.28;;;21.35;;
41709;SDS011;59402;48.396;-4.472;2022-12-18T04:04:32;38.72;;;20.98;;
41709;SDS011;59402;48.396;-4.472;2022-12-18T04:07:01;37.25;;;22.02;;
41709;SDS011;59402;48.396;-4.472;2022-12-18T04:09:27;38.38;;;21.73;;
41709;SDS011;59402;48.396;-4.472;2022-12-18T04:11:53;43.30;;;22.00;;
41709;SDS011;59402;48.396;-4.472;2022-12-18T04:14:19;38.95;;;21.38;;
41709;SDS011;59402;48.396;-4.472;2022-12-18T04:16:49;35.70;;;20.48;;
41709;SDS011;59402;48.396;-4.472;2022-12-18T04:21:43;33.63;;;20.23;;
41709;SDS011;59402;48.396;-4.472;2022-12-18T04:24:10;37.10;;;21.33;;
41709;SDS011;59402;48.396;-4.472;2022-12-18T04:26:40;34.85;;;20.63;;
41709;SDS011;59402;48.396;-4.472;2022-12-18T04:29:13;34.55;;;20.92;;
41709;SDS011;59402;48.396;-4.472;2022-12-18T04:31:39;32.17;;;19.45;;
41709;SDS011;59402;48.396;-4.472;2022-12-18T04:34:04;35.80;;;20.73;;
41709;SDS011;59402;48.396;-4.472;2022-12-18T04:36:36;35.60;;;19.88;;
41709;SDS011;59402;48.396;-4.472;2022-12-18T04:39:02;33.20;;;20.33;;
41709;SDS011;59402;48.396;-4.472;2022-12-18T04:41:27;34.80;;;20.08;;
41709;SDS011;59402;48.396;-4.472;2022-12-18T04:43:53;37.30;;;19.95;;
41709;SDS011;59402;48.396;-4.472;2022-12-18T04:46:18;37.83;;;20.88;;
41709;SDS011;59402;48.396;-4.472;2022-12-18T04:48:45;40.08;;;21.15;;
41709;SDS011;59402;48.396;-4.472;2022-12-18T04:51:10;36.58;;;19.92;;
41709;SDS011;59402;48.396;-4.472;2022-12-18T04:53:36;33.97;;;18.77;;
41709;SDS011;59402;48.396;-4.472;2022-12-18T04:56:02;37.72;;;20.10;;
41709;SDS011;59402;48.396;-4.472;2022-12-18T04:58:27;32.20;;;19.23;;
41709;SDS011;59402;48.396;-4.472;2022-12-18T05:00:52;34.65;;;18.70;;
41709;SDS011;59402;48.396;-4.472;2022-12-18T05:03:18;33.60;;;17.77;;
41709;SDS011;59402;48.396;-4.472;2022-12-18T05:05:43;34.40;;;18.40;;
41709;SDS011;59402;48.396;-4.472;2022-12-18T05:08:08;32.75;;;18.65;;
41709;SDS011;59402;48.396;-4.472;2022-12-18T05:10:34;35.53;;;20.30;;
41709;SDS011;59402;48.396;-4.472;2022-12-18T05:12:59;32.05;;;18.00;;
41709;SDS011;59402;48.396;-4.472;2022-12-18T05:15:29;32.95;;;19.23;;
41709;SDS011;59402;48.396;-4.472;2022-12-18T05:17:55;32.80;;;19.63;;
41709;SDS011;59402;48.396;-4.472;2022-12-18T05:20:20;30.73;;;17.48;;
41709;SDS011;59402;48.396;-4.472;2022-12-18T05:22:46;28.92;;;19.05;;
41709;SDS011;59402;48.396;-4.472;2022-12-18T05:25:11;37.42;;;19.35;;
41709;SDS011;59402;48.396;-4.472;2022-12-18T05:27:36;38.85;;;19.90;;
41709;SDS011;59402;48.396;-4.472;2022-12-18T05:30:02;34.13;;;16.95;;
41709;SDS011;59402;48.396;-4.472;2022-12-18T05:32:27;36.08;;;17.65;;
41709;SDS011;59402;48.396;-4.472;2022-12-18T05:34:53;30.33;;;16.23;;
41709;SDS011;59402;48.396;-4.472;2022-12-18T05:37:18;28.92;;;16.60;;
41709;SDS011;59402;48.396;-4.472;2022-12-18T05:39:43;30.00;;;17.05;;
41709;SDS011;59402;48.396;-4.472;2022-12-18T05:42:09;31.63;;;17.75;;
41709;SDS011;59402;48.396;-4.472;2022-12-18T05:44:34;30.63;;;17.58;;
41709;SDS011;59402;48.396;-4.472;2022-12-18T05:47:00;32.10;;;19.05;;
41709;SDS011;59402;48.396;-4.472;2022-12-18T05:49:25;34.75;;;19.17;;
41709;SDS011;59402;48.396;-4.472;2022-12-18T05:51:51;41.67;;;19.45;;
41709;SDS011;59402;48.396;-4.472;2022-12-18T05:54:16;32.30;;;17.80;;
41709;SDS011;59402;48.396;-4.472;2022-12-18T05:56:41;36.50;;;18.10;;
41709;SDS011;59402;48.396;-4.472;2022-12-18T05:59:07;29.48;;;18.20;;
41709;SDS011;59402;48.396;-4.472;2022-12-18T06:01:32;36.38;;;17.50;;
41709;SDS011;59402;48.396;-4.472;2022-12-18T06:03:57;29.63;;;16.92;;
41709;SDS011;59402;48.396;-4.472;2022-12-18T06:06:24;35.42;;;17.48;;
41709;SDS011;59402;48.396;-4.472;2022-12-18T06:08:50;31.73;;;17.10;;
41709;SDS011;59402;48.396;-4.472;2022-12-18T06:11:17;36.20;;;17.15;;
41709;SDS011;59402;48.396;-4.472;2022-12-18T06:13:42;41.27;;;18.73;;
41709;SDS011;59402;48.396;-4.472;2022-12-18T06:16:07;36.15;;;17.77;;
41709;SDS011;59402;48.396;-4.472;2022-12-18T06:18:33;30.48;;;18.15;;
41709;SDS011;59402;48.396;-4.472;2022-12-18T06:20:58;32.95;;;17.52;;
41709;SDS011;59402;48.396;-4.472;2022-12-18T06:23:24;30.15;;;15.48;;
41709;SDS011;59402;48.396;-4.472;2022-12-18T06:25:49;26.73;;;15.75;;
41709;SDS011;59402;48.396;-4.472;2022-12-18T06:28:15;24.65;;;16.05;;
41709;SDS011;59402;48.396;-4.472;2022-12-18T06:30:43;26.45;;;15.32;;
41709;SDS011;59402;48.396;-4.472;2022-12-18T06:35:34;27.00;;;14.57;;
41709;SDS011;59402;48.396;-4.472;2022-12-18T06:38:00;29.65;;;14.68;;
41709;SDS011;59402;48.396;-4.472;2022-12-18T06:40:26;27.17;;;15.73;;
41709;SDS011;59402;48.396;-4.472;2022-12-18T06:42:51;31.77;;;16.02;;
41709;SDS011;59402;48.396;-4.472;2022-12-18T06:45:16;24.85;;;15.40;;
41709;SDS011;59402;48.396;-4.472;2022-12-18T06:47:42;24.73;;;15.15;;
41709;SDS011;59402;48.396;-4.472;2022-12-18T06:50:07;31.65;;;16.33;;
41709;SDS011;59402;48.396;-4.472;2022-12-18T06:52:33;29.42;;;13.75;;
41709;SDS011;59402;48.396;-4.472;2022-12-18T06:54:58;26.10;;;14.40;;
41709;SDS011;59402;48.396;-4.472;2022-12-18T06:57:23;30.63;;;15.35;;
41709;SDS011;59402;48.396;-4.472;2022-12-18T06:59:49;26.60;;;12.38;;
41709;SDS011;59402;48.396;-4.472;2022-12-18T07:02:14;27.05;;;13.15;;
41709;SDS011;59402;48.396;-4.472;2022-12-18T07:04:39;26.25;;;12.80;;
41709;SDS011;59402;48.396;-4.472;2022-12-18T07:07:05;23.83;;;13.00;;
41709;SDS011;59402;48.396;-4.472;2022-12-18T07:09:30;26.45;;;13.02;;
41709;SDS011;59402;48.396;-4.472;2022-12-18T07:11:55;18.95;;;11.50;;
41709;SDS011;59402;48.396;-4.472;2022-12-18T07:14:21;21.83;;;11.93;;
41709;SDS011;59402;48.396;-4.472;2022-12-18T07:16:46;19.50;;;11.27;;
41709;SDS011;59402;48.396;-4.472;2022-12-18T07:19:11;21.63;;;10.75;;
41709;SDS011;59402;48.396;-4.472;2022-12-18T07:21:37;19.33;;;11.02;;
41709;SDS011;59402;48.396;-4.472;2022-12-18T07:24:02;20.10;;;10.30;;
41709;SDS011;59402;48.396;-4.472;2022-12-18T07:26:28;24.08;;;10.60;;
41709;SDS011;59402;48.396;-4.472;2022-12-18T07:28:56;21.77;;;10.43;;
41709;SDS011;59402;48.396;-4.472;2022-12-18T07:31:22;24.60;;;10.52;;
41709;SDS011;59402;48.396;-4.472;2022-12-18T07:33:48;24.33;;;10.05;;
41709;SDS011;59402;48.396;-4.472;2022-12-18T07:36:14;20.60;;;9.40;;
41709;SDS011;59402;48.396;-4.472;2022-12-18T07:38:40;21.15;;;9.77;;
41709;SDS011;59402;48.396;-4.472;2022-12-18T07:41:07;20.50;;;9.52;;
41709;SDS011;59402;48.396;-4.472;2022-12-18T07:43:33;24.00;;;8.88;;
41709;SDS011;59402;48.396;-4.472;2022-12-18T07:45:58;18.88;;;8.88;;
41709;SDS011;59402;48.396;-4.472;2022-12-18T07:48:24;13.10;;;8.15;;
41709;SDS011;59402;48.396;-4.472;2022-12-18T07:50:49;16.45;;;8.82;;
41709;SDS011;59402;48.396;-4.472;2022-12-18T07:53:14;19.60;;;8.45;;
41709;SDS011;59402;48.396;-4.472;2022-12-18T07:55:40;17.30;;;8.60;;
41709;SDS011;59402;48.396;-4.472;2022-12-18T07:58:06;15.63;;;7.53;;
41709;SDS011;59402;48.396;-4.472;2022-12-18T08:00:32;19.60;;;8.70;;
41709;SDS011;59402;48.396;-4.472;2022-12-18T08:02:57;21.65;;;8.60;;
41709;SDS011;59402;48.396;-4.472;2022-12-18T08:05:23;18.55;;;8.38;;
41709;SDS011;59402;48.396;-4.472;2022-12-18T08:07:48;27.98;;;8.80;;
41709;SDS011;59402;48.396;-4.472;2022-12-18T08:10:14;16.25;;;7.57;;
41709;SDS011;59402;48.396;-4.472;2022-12-18T08:12:39;20.27;;;7.95;;
41709;SDS011;59402;48.396;-4.472;2022-12-18T08:15:05;22.42;;;7.63;;
41709;SDS011;59402;48.396;-4.472;2022-12-18T08:17:30;23.38;;;7.05;;
41709;SDS011;59402;48.396;-4.472;2022-12-18T08:19:56;17.83;;;6.05;;
41709;SDS011;59402;48.396;-4.472;2022-12-18T08:22:21;17.85;;;5.35;;
41709;SDS011;59402;48.396;-4.472;2022-12-18T08:24:46;16.73;;;6.40;;
41709;SDS011;59402;48.396;-4.472;2022-12-18T08:27:12;28.48;;;6.07;;
41709;SDS011;59402;48.396;-4.472;2022-12-18T08:29:37;26.13;;;6.28;;
41709;SDS011;59402;48.396;-4.472;2022-12-18T08:32:03;18.05;;;5.38;;
41709;SDS011;59402;48.396;-4.472;2022-12-18T08:34:28;21.80;;;5.25;;
41709;SDS011;59402;48.396;-4.472;2022-12-18T08:36:54;26.40;;;4.82;;
41709;SDS011;59402;48.396;-4.472;2022-12-18T08:39:19;24.23;;;5.10;;
41709;SDS011;59402;48.396;-4.472;2022-12-18T08:41:44;15.35;;;4.88;;
41709;SDS011;59402;48.396;-4.472;2022-12-18T08:44:30;23.92;;;5.07;;
41709;SDS011;59402;48.396;-4.472;2022-12-18T08:47:07;24.00;;;5.53;;
41709;SDS011;59402;48.396;-4.472;2022-12-18T08:49:33;22.70;;;5.15;;
41709;SDS011;59402;48.396;-4.472;2022-12-18T08:51:59;20.35;;;5.13;;
41709;SDS011;59402;48.396;-4.472;2022-12-18T08:54:25;26.55;;;5.25;;
41709;SDS011;59402;48.396;-4.472;2022-12-18T08:56:50;20.58;;;5.22;;
41709;SDS011;59402;48.396;-4.472;2022-12-18T08:59:16;20.23;;;4.30;;
41709;SDS011;59402;48.396;-4.472;2022-12-18T09:01:42;19.42;;;4.68;;
41709;SDS011;59402;48.396;-4.472;2022-12-18T09:04:08;25.17;;;4.28;;
41709;SDS011;59402;48.396;-4.472;2022-12-18T09:06:34;21.05;;;4.38;;
41709;SDS011;59402;48.396;-4.472;2022-12-18T09:09:00;26.20;;;4.78;;
41709;SDS011;59402;48.396;-4.472;2022-12-18T09:11:26;17.83;;;4.18;;
41709;SDS011;59402;48.396;-4.472;2022-12-18T09:13:51;21.95;;;4.35;;
41709;SDS011;59402;48.396;-4.472;2022-12-18T09:16:17;20.77;;;4.50;;
41709;SDS011;59402;48.396;-4.472;2022-12-18T09:18:42;23.08;;;5.63;;
41709;SDS011;59402;48.396;-4.472;2022-12-18T09:21:09;20.58;;;4.70;;
41709;SDS011;59402;48.396;-4.472;2022-12-18T09:23:34;17.25;;;4.43;;
41709;SDS011;59402;48.396;-4.472;2022-12-18T09:25:59;18.65;;;4.05;;
41709;SDS011;59402;48.396;-4.472;2022-12-18T09:28:25;19.45;;;3.33;;
41709;SDS011;59402;48.396;-4.472;2022-12-18T09:30:50;20.25;;;4.55;;
41709;SDS011;59402;48.396;-4.472;2022-12-18T09:33:16;18.38;;;4.32;;
41709;SDS011;59402;48.396;-4.472;2022-12-18T09:35:41;21.85;;;3.92;;
41709;SDS011;59402;48.396;-4.472;2022-12-18T09:38:08;29.60;;;4.72;;
41709;SDS011;59402;48.396;-4.472;2022-12-18T09:40:44;24.13;;;3.78;;
41709;SDS011;59402;48.396;-4.472;2022-12-18T09:43:23;36.00;;;6.03;;
41709;SDS011;59402;48.396;-4.472;2022-12-18T09:45:51;34.47;;;5.85;;
41709;SDS011;59402;48.396;-4.472;2022-12-18T09:48:20;33.47;;;6.32;;
41709;SDS011;59402;48.396;-4.472;2022-12-18T09:50:46;26.08;;;4.47;;
41709;SDS011;59402;48.396;-4.472;2022-12-18T09:53:15;30.52;;;4.90;;
41709;SDS011;59402;48.396;-4.472;2022-12-18T09:55:43;33.42;;;5.60;;
41709;SDS011;59402;48.396;-4.472;2022-12-18T10:00:35;34.50;;;6.22;;
41709;SDS011;59402;48.396;-4.472;2022-12-18T10:03:08;40.70;;;4.95;;
41709;SDS011;59402;48.396;-4.472;2022-12-18T10:08:11;31.67;;;5.68;;
41709;SDS011;59402;48.396;-4.472;2022-12-18T10:10:57;35.90;;;6.53;;
41709;SDS011;59402;48.396;-4.472;2022-12-18T10:16:13;25.50;;;5.40;;
41709;SDS011;59402;48.396;-4.472;2022-12-18T10:21:10;35.25;;;5.70;;
41709;SDS011;59402;48.396;-4.472;2022-12-18T10:23:43;35.65;;;5.15;;
41709;SDS011;59402;48.396;-4.472;2022-12-18T10:26:12;28.02;;;4.97;;
41709;SDS011;59402;48.396;-4.472;2022-12-18T10:28:38;24.27;;;5.07;;
41709;SDS011;59402;48.396;-4.472;2022-12-18T10:31:10;33.28;;;5.18;;
41709;SDS011;59402;48.396;-4.472;2022-12-18T10:33:38;32.30;;;5.93;;
41709;SDS011;59402;48.396;-4.472;2022-12-18T10:36:04;29.35;;;5.90;;
41709;SDS011;59402;48.396;-4.472;2022-12-18T10:38:31;30.43;;;5.33;;
41709;SDS011;59402;48.396;-4.472;2022-12-18T10:41:00;20.25;;;3.70;;
41709;SDS011;59402;48.396;-4.472;2022-12-18T10:43:27;23.02;;;4.00;;
41709;SDS011;59402;48.396;-4.472;2022-12-18T10:48:35;24.98;;;4.30;;
41709;SDS011;59402;48.396;-4.472;2022-12-18T10:51:01;34.03;;;6.45;;
41709;SDS011;59402;48.396;-4.472;2022-12-18T10:53:28;26.52;;;4.85;;
41709;SDS011;59402;48.396;-4.472;2022-12-18T10:55:55;29.08;;;4.70;;
41709;SDS011;59402;48.396;-4.472;2022-12-18T11:03:29;30.98;;;6.35;;
41709;SDS011;59402;48.396;-4.472;2022-12-18T11:06:05;32.08;;;4.93;;
41709;SDS011;59402;48.396;-4.472;2022-12-18T11:08:31;22.42;;;4.95;;
41709;SDS011;59402;48.396;-4.472;2022-12-18T11:10:56;35.75;;;5.18;;
41709;SDS011;59402;48.396;-4.472;2022-12-18T11:13:22;31.88;;;5.10;;
41709;SDS011;59402;48.396;-4.472;2022-12-18T11:15:48;25.25;;;5.05;;
41709;SDS011;59402;48.396;-4.472;2022-12-18T11:20:55;32.47;;;4.70;;
41709;SDS011;59402;48.396;-4.472;2022-12-18T11:23:22;35.95;;;6.82;;
41709;SDS011;59402;48.396;-4.472;2022-12-18T11:25:59;33.70;;;4.95;;
41709;SDS011;59402;48.396;-4.472;2022-12-18T11:28:26;38.58;;;5.10;;
41709;SDS011;59402;48.396;-4.472;2022-12-18T11:33:36;38.50;;;5.78;;
41709;SDS011;59402;48.396;-4.472;2022-12-18T11:36:02;31.00;;;5.07;;
41709;SDS011;59402;48.396;-4.472;2022-12-18T11:38:39;36.58;;;6.00;;
41709;SDS011;59402;48.396;-4.472;2022-12-18T11:41:06;45.05;;;6.18;;
41709;SDS011;59402;48.396;-4.472;2022-12-18T11:43:52;34.25;;;5.60;;
41709;SDS011;59402;48.396;-4.472;2022-12-18T11:46:36;30.40;;;6.00;;
41709;SDS011;59402;48.396;-4.472;2022-12-18T11:54:12;37.97;;;6.60;;
41709;SDS011;59402;48.396;-4.472;2022-12-18T11:56:49;39.97;;;6.20;;
41709;SDS011;59402;48.396;-4.472;2022-12-18T12:12:39;26.63;;;5.53;;
41709;SDS011;59402;48.396;-4.472;2022-12-18T12:15:20;26.48;;;5.53;;
41709;SDS011;59402;48.396;-4.472;2022-12-18T12:18:15;30.42;;;5.20;;
41709;SDS011;59402;48.396;-4.472;2022-12-18T12:25:48;34.00;;;6.88;;
41709;SDS011;59402;48.396;-4.472;2022-12-18T12:33:30;38.42;;;5.80;;
41709;SDS011;59402;48.396;-4.472;2022-12-18T12:38:57;24.17;;;4.47;;
41709;SDS011;59402;48.396;-4.472;2022-12-18T12:41:25;37.75;;;7.40;;
41709;SDS011;59402;48.396;-4.472;2022-12-18T12:44:13;36.75;;;4.95;;
41709;SDS011;59402;48.396;-4.472;2022-12-18T12:46:40;38.83;;;6.32;;
41709;SDS011;59402;48.396;-4.472;2022-12-18T12:49:11;30.63;;;5.60;;
41709;SDS011;59402;48.396;-4.472;2022-12-18T12:51:40;35.20;;;6.40;;
41709;SDS011;59402;48.396;-4.472;2022-12-18T12:54:11;32.65;;;5.18;;
41709;SDS011;59402;48.396;-4.472;2022-12-18T12:57:01;28.60;;;5.93;;
41709;SDS011;59402;48.396;-4.472;2022-12-18T13:01:58;47.17;;;6.75;;
41709;SDS011;59402;48.396;-4.472;2022-12-18T13:06:53;41.33;;;7.15;;
41709;SDS011;59402;48.396;-4.472;2022-12-18T13:09:20;32.08;;;6.13;;
41709;SDS011;59402;48.396;-4.472;2022-12-18T13:11:45;44.67;;;5.70;;
41709;SDS011;59402;48.396;-4.472;2022-12-18T13:14:37;40.03;;;6.68;;
41709;SDS011;59402;48.396;-4.472;2022-12-18T13:19:47;38.78;;;5.55;;
41709;SDS011;59402;48.396;-4.472;2022-12-18T13:22:25;41.35;;;6.28;;
41709;SDS011;59402;48.396;-4.472;2022-12-18T13:24:53;42.90;;;7.00;;
41709;SDS011;59402;48.396;-4.472;2022-12-18T13:30:11;40.30;;;6.45;;
41709;SDS011;59402;48.396;-4.472;2022-12-18T13:32:48;37.92;;;5.75;;
41709;SDS011;59402;48.396;-4.472;2022-12-18T13:37:59;30.77;;;5.65;;
41709;SDS011;59402;48.396;-4.472;2022-12-18T13:45:43;36.83;;;5.97;;
41709;SDS011;59402;48.396;-4.472;2022-12-18T13:48:22;32.70;;;5.43;;
41709;SDS011;59402;48.396;-4.472;2022-12-18T13:50:49;39.92;;;5.47;;
41709;SDS011;59402;48.396;-4.472;2022-12-18T13:53:18;47.72;;;6.63;;
41709;SDS011;59402;48.396;-4.472;2022-12-18T13:55:45;50.20;;;6.45;;
41709;SDS011;59402;48.396;-4.472;2022-12-18T13:58:11;55.67;;;7.82;;
41709;SDS011;59402;48.396;-4.472;2022-12-18T14:00:40;39.05;;;5.07;;
41709;SDS011;59402;48.396;-4.472;2022-12-18T14:03:28;44.17;;;6.38;;
41709;SDS011;59402;48.396;-4.472;2022-12-18T14:05:53;42.97;;;6.15;;
41709;SDS011;59402;48.396;-4.472;2022-12-18T14:08:19;42.95;;;6.40;;
41709;SDS011;59402;48.396;-4.472;2022-12-18T14:10:46;39.90;;;6.15;;
41709;SDS011;59402;48.396;-4.472;2022-12-18T14:13:15;47.47;;;8.38;;
41709;SDS011;59402;48.396;-4.472;2022-12-18T14:15:42;41.85;;;6.38;;
41709;SDS011;59402;48.396;-4.472;2022-12-18T14:20:33;46.30;;;7.60;;
41709;SDS011;59402;48.396;-4.472;2022-12-18T14:22:59;42.47;;;6.05;;
41709;SDS011;59402;48.396;-4.472;2022-12-18T14:25:29;50.38;;;7.85;;
41709;SDS011;59402;48.396;-4.472;2022-12-18T14:30:37;48.38;;;6.50;;
41709;SDS011;59402;48.396;-4.472;2022-12-18T14:33:03;48.20;;;6.60;;
41709;SDS011;59402;48.396;-4.472;2022-12-18T14:35:29;45.08;;;7.38;;
41709;SDS011;59402;48.396;-4.472;2022-12-18T14:38:08;47.13;;;6.63;;
41709;SDS011;59402;48.396;-4.472;2022-12-18T14:40:34;60.25;;;8.10;;
41709;SDS011;59402;48.396;-4.472;2022-12-18T14:42:59;45.38;;;9.13;;
41709;SDS011;59402;48.396;-4.472;2022-12-18T14:45:37;47.30;;;8.48;;
41709;SDS011;59402;48.396;-4.472;2022-12-18T14:48:06;38.00;;;6.07;;
41709;SDS011;59402;48.396;-4.472;2022-12-18T14:50:32;38.80;;;6.40;;
41709;SDS011;59402;48.396;-4.472;2022-12-18T14:52:57;37.35;;;6.15;;
41709;SDS011;59402;48.396;-4.472;2022-12-18T14:55:23;40.58;;;6.47;;
41709;SDS011;59402;48.396;-4.472;2022-12-18T14:57:49;39.40;;;6.78;;
41709;SDS011;59402;48.396;-4.472;2022-12-18T15:02:41;43.03;;;9.43;;
41709;SDS011;59402;48.396;-4.472;2022-12-18T15:05:18;40.38;;;9.20;;
41709;SDS011;59402;48.396;-4.472;2022-12-18T15:07:45;43.95;;;7.30;;
41709;SDS011;59402;48.396;-4.472;2022-12-18T15:10:21;32.88;;;7.15;;
41709;SDS011;59402;48.396;-4.472;2022-12-18T15:12:48;40.55;;;9.80;;
41709;SDS011;59402;48.396;-4.472;2022-12-18T15:18:00;37.88;;;8.05;;
41709;SDS011;59402;48.396;-4.472;2022-12-18T15:20:26;40.22;;;6.60;;
41709;SDS011;59402;48.396;-4.472;2022-12-18T15:22:52;48.80;;;9.38;;
41709;SDS011;59402;48.396;-4.472;2022-12-18T15:25:24;42.17;;;7.82;;
41709;SDS011;59402;48.396;-4.472;2022-12-18T15:27:50;30.65;;;6.10;;
41709;SDS011;59402;48.396;-4.472;2022-12-18T15:30:17;32.97;;;7.13;;
41709;SDS011;59402;48.396;-4.472;2022-12-18T15:32:43;40.83;;;7.53;;
41709;SDS011;59402;48.396;-4.472;2022-12-18T15:37:34;44.08;;;7.38;;
41709;SDS011;59402;48.396;-4.472;2022-12-18T15:39:59;41.20;;;6.85;;
41709;SDS011;59402;48.396;-4.472;2022-12-18T15:42:24;41.38;;;8.70;;
41709;SDS011;59402;48.396;-4.472;2022-12-18T15:45:16;43.10;;;8.85;;
41709;SDS011;59402;48.396;-4.472;2022-12-18T15:47:41;37.17;;;6.55;;
41709;SDS011;59402;48.396;-4.472;2022-12-18T15:50:07;37.10;;;8.75;;
41709;SDS011;59402;48.396;-4.472;2022-12-18T15:52:35;39.97;;;8.23;;
41709;SDS011;59402;48.396;-4.472;2022-12-18T15:55:05;34.08;;;7.25;;
41709;SDS011;59402;48.396;-4.472;2022-12-18T15:57:49;47.33;;;10.02;;
41709;SDS011;59402;48.396;-4.472;2022-12-18T16:00:14;38.17;;;9.77;;
41709;SDS011;59402;48.396;-4.472;2022-12-18T16:02:39;47.58;;;9.05;;
41709;SDS011;59402;48.396;-4.472;2022-12-18T16:05:09;42.13;;;9.10;;
41709;SDS011;59402;48.396;-4.472;2022-12-18T16:07:38;39.22;;;7.63;;
41709;SDS011;59402;48.396;-4.472;2022-12-18T16:10:04;44.33;;;7.13;;
41709;SDS011;59402;48.396;-4.472;2022-12-18T16:12:29;48.13;;;9.52;;
41709;SDS011;59402;48.396;-4.472;2022-12-18T16:14:54;47.53;;;8.38;;
41709;SDS011;59402;48.396;-4.472;2022-12-18T16:17:20;43.97;;;7.72;;
41709;SDS011;59402;48.396;-4.472;2022-12-18T16:19:45;52.38;;;9.20;;